KTOP/TOP METAR and TAF weather

Enter ICAO airport designator
Station Type Date Time Source
KTOP METAR 2021/03/08 11:53 UTC NOAA

KTOP 081153Z AUTO 00000KT 10SM CLR 08/M02 A3027 RMK AO2 SLP249 T00781022 10111 20072 53003


Station Type Date Time Source
KTOP Decoded METAR 2021/03/08 11:53 UTC NOAA

TOPEKA BILLARD MUNICIPAL AIRPORT, KS, United States (KTOP) 39-04N 95-38W 268M
Mar 08, 2021 - 06:53 AM EST / 2021.03.08 1153 UTC
Wind: Calm:0
Visibility: 10 mile(s):0
Sky conditions: clear
Temperature: 46.0 F (7.8 C)
Dew Point: 28.0 F (-2.2 C)
Relative Humidity: 49%
Pressure (altimeter): 30.27 in. Hg (1025 hPa)
Pressure tendency: 0.01 inches (0.3 hPa) higher than three hours ago
ob: KTOP 081153Z AUTO 00000KT 10SM CLR 08/M02 A3027 RMK AO2 SLP249 T00781022 10111 20072 53003
cycle: 12

Station Type Date Time Source
KTOP TAF 2021/03/08 12:22 UTC NOAA

TAF KTOP 081120Z 0812/0912 18009KT P6SM SCT250 WS015/21040KT
FM081500 20015G25KT P6SM SCT250
FM090100 18012KT P6SM BKN250
FM090400 17012KT P6SM BKN150 WS020/20050KT

Example: see airport list